sensor_id;sensor_type;location;lat;lon;timestamp;P1;durP1;ratioP1;P2;durP2;ratioP2
57842;SDS011;43673;51.058;3.734;2023-04-24T08:10:31;18.63;;;6.40;;
57842;SDS011;43673;51.058;3.734;2023-04-24T08:12:57;22.00;;;8.57;;
57842;SDS011;43673;51.058;3.734;2023-04-24T08:15:32;14.98;;;6.35;;
57842;SDS011;43673;51.058;3.734;2023-04-24T08:17:58;17.85;;;7.53;;
57842;SDS011;43673;51.058;3.734;2023-04-24T08:20:30;12.65;;;7.43;;
57842;SDS011;43673;51.058;3.734;2023-04-24T08:22:56;16.00;;;5.72;;
57842;SDS011;43673;51.058;3.734;2023-04-24T08:25:26;13.93;;;6.13;;
57842;SDS011;43673;51.058;3.734;2023-04-24T08:27:53;11.88;;;6.65;;
57842;SDS011;43673;51.058;3.734;2023-04-24T08:30:19;11.02;;;6.45;;
57842;SDS011;43673;51.058;3.734;2023-04-24T08:32:45;12.75;;;5.22;;
57842;SDS011;43673;51.058;3.734;2023-04-24T08:35:13;14.40;;;5.80;;
57842;SDS011;43673;51.058;3.734;2023-04-24T08:37:39;13.00;;;5.28;;
57842;SDS011;43673;51.058;3.734;2023-04-24T08:40:13;11.93;;;5.10;;
57842;SDS011;43673;51.058;3.734;2023-04-24T08:42:41;13.50;;;5.50;;
57842;SDS011;43673;51.058;3.734;2023-04-24T08:47:36;13.32;;;4.68;;
57842;SDS011;43673;51.058;3.734;2023-04-24T08:50:07;12.18;;;4.90;;
57842;SDS011;43673;51.058;3.734;2023-04-24T08:52:36;17.42;;;4.88;;
57842;SDS011;43673;51.058;3.734;2023-04-24T08:55:02;9.15;;;4.28;;
57842;SDS011;43673;51.058;3.734;2023-04-24T08:57:28;10.75;;;4.60;;
57842;SDS011;43673;51.058;3.734;2023-04-24T08:59:54;8.68;;;5.47;;
57842;SDS011;43673;51.058;3.734;2023-04-24T09:02:21;12.25;;;5.07;;
57842;SDS011;43673;51.058;3.734;2023-04-24T09:04:48;9.23;;;5.75;;
57842;SDS011;43673;51.058;3.734;2023-04-24T09:07:16;11.13;;;6.40;;
57842;SDS011;43673;51.058;3.734;2023-04-24T09:09:43;10.68;;;5.00;;
57842;SDS011;43673;51.058;3.734;2023-04-24T09:12:09;12.13;;;5.93;;
57842;SDS011;43673;51.058;3.734;2023-04-24T09:14:35;12.38;;;5.88;;
57842;SDS011;43673;51.058;3.734;2023-04-24T09:56:23;27.17;;;6.20;;
57842;SDS011;43673;51.058;3.734;2023-04-24T10:18:00;9.85;;;5.30;;
57842;SDS011;43673;51.058;3.734;2023-04-24T10:20:30;6.70;;;5.22;;
57842;SDS011;43673;51.058;3.734;2023-04-24T10:23:14;9.40;;;6.07;;
57842;SDS011;43673;51.058;3.734;2023-04-24T10:26:03;7.60;;;5.50;;
57842;SDS011;43673;51.058;3.734;2023-04-24T10:29:32;10.23;;;5.05;;
57842;SDS011;43673;51.058;3.734;2023-04-24T10:32:01;8.95;;;4.65;;
57842;SDS011;43673;51.058;3.734;2023-04-24T10:34:27;8.07;;;5.00;;
57842;SDS011;43673;51.058;3.734;2023-04-24T10:36:56;6.95;;;5.07;;
57842;SDS011;43673;51.058;3.734;2023-04-24T10:39:25;7.75;;;4.32;;
57842;SDS011;43673;51.058;3.734;2023-04-24T10:41:51;9.95;;;5.50;;
57842;SDS011;43673;51.058;3.734;2023-04-24T10:44:18;10.02;;;6.05;;
57842;SDS011;43673;51.058;3.734;2023-04-24T10:46:53;10.23;;;4.93;;
57842;SDS011;43673;51.058;3.734;2023-04-24T10:49:30;8.63;;;5.70;;
57842;SDS011;43673;51.058;3.734;2023-04-24T10:52:00;7.28;;;4.18;;
57842;SDS011;43673;51.058;3.734;2023-04-24T10:54:34;9.55;;;4.80;;
57842;SDS011;43673;51.058;3.734;2023-04-24T10:59:50;8.05;;;4.30;;
57842;SDS011;43673;51.058;3.734;2023-04-24T11:02:38;6.95;;;3.80;;
57842;SDS011;43673;51.058;3.734;2023-04-24T11:05:06;8.02;;;4.47;;
57842;SDS011;43673;51.058;3.734;2023-04-24T11:10:40;11.80;;;4.47;;
57842;SDS011;43673;51.058;3.734;2023-04-24T11:13:09;7.57;;;4.78;;
57842;SDS011;43673;51.058;3.734;2023-04-24T11:15:35;7.82;;;4.53;;
57842;SDS011;43673;51.058;3.734;2023-04-24T11:18:01;6.45;;;3.97;;
57842;SDS011;43673;51.058;3.734;2023-04-24T11:20:26;11.07;;;4.47;;
57842;SDS011;43673;51.058;3.734;2023-04-24T11:22:53;8.95;;;4.88;;
57842;SDS011;43673;51.058;3.734;2023-04-24T11:28:28;8.65;;;4.47;;
57842;SDS011;43673;51.058;3.734;2023-04-24T11:34:11;7.00;;;4.40;;
57842;SDS011;43673;51.058;3.734;2023-04-24T11:39:56;8.32;;;5.78;;
57842;SDS011;43673;51.058;3.734;2023-04-24T11:42:39;11.75;;;3.95;;
57842;SDS011;43673;51.058;3.734;2023-04-24T11:45:22;6.80;;;4.25;;
57842;SDS011;43673;51.058;3.734;2023-04-24T11:47:53;9.35;;;4.32;;
57842;SDS011;43673;51.058;3.734;2023-04-24T11:53:25;6.10;;;3.95;;
57842;SDS011;43673;51.058;3.734;2023-04-24T11:55:53;7.88;;;4.57;;
57842;SDS011;43673;51.058;3.734;2023-04-24T11:58:45;7.65;;;3.97;;
57842;SDS011;43673;51.058;3.734;2023-04-24T12:01:58;5.88;;;3.50;;
57842;SDS011;43673;51.058;3.734;2023-04-24T12:05:08;8.63;;;3.47;;
57842;SDS011;43673;51.058;3.734;2023-04-24T12:07:53;9.52;;;4.60;;
57842;SDS011;43673;51.058;3.734;2023-04-24T12:10:23;6.70;;;3.38;;
57842;SDS011;43673;51.058;3.734;2023-04-24T12:12:54;7.03;;;3.20;;
57842;SDS011;43673;51.058;3.734;2023-04-24T12:15:23;7.05;;;3.75;;
57842;SDS011;43673;51.058;3.734;2023-04-24T12:41:53;2.90;;;2.20;;
57842;SDS011;43673;51.058;3.734;2023-04-24T12:44:31;7.82;;;3.30;;
57842;SDS011;43673;51.058;3.734;2023-04-24T12:46:59;3.58;;;2.15;;
57842;SDS011;43673;51.058;3.734;2023-04-24T12:54:36;8.50;;;2.60;;
57842;SDS011;43673;51.058;3.734;2023-04-24T12:57:02;8.48;;;2.88;;
57842;SDS011;43673;51.058;3.734;2023-04-24T13:08:36;3.08;;;2.17;;
57842;SDS011;43673;51.058;3.734;2023-04-24T13:24:10;5.82;;;2.50;;
57842;SDS011;43673;51.058;3.734;2023-04-24T13:32:12;4.85;;;2.03;;
57842;SDS011;43673;51.058;3.734;2023-04-24T13:35:14;5.85;;;2.15;;
57842;SDS011;43673;51.058;3.734;2023-04-24T13:40:44;3.42;;;2.47;;
57842;SDS011;43673;51.058;3.734;2023-04-24T13:43:29;5.93;;;2.25;;
57842;SDS011;43673;51.058;3.734;2023-04-24T13:51:12;3.58;;;2.17;;
57842;SDS011;43673;51.058;3.734;2023-04-24T14:07:49;2.78;;;1.88;;
57842;SDS011;43673;51.058;3.734;2023-04-24T14:10:32;2.60;;;1.60;;
57842;SDS011;43673;51.058;3.734;2023-04-24T14:12:58;3.00;;;1.48;;
57842;SDS011;43673;51.058;3.734;2023-04-24T14:18:12;6.57;;;2.30;;
57842;SDS011;43673;51.058;3.734;2023-04-24T14:21:05;3.63;;;2.33;;
57842;SDS011;43673;51.058;3.734;2023-04-24T14:24:01;3.05;;;2.00;;
57842;SDS011;43673;51.058;3.734;2023-04-24T14:26:27;3.00;;;1.83;;
57842;SDS011;43673;51.058;3.734;2023-04-24T14:28:53;4.00;;;1.83;;
57842;SDS011;43673;51.058;3.734;2023-04-24T14:31:20;4.47;;;1.90;;
57842;SDS011;43673;51.058;3.734;2023-04-24T14:33:45;3.58;;;1.42;;
57842;SDS011;43673;51.058;3.734;2023-04-24T14:36:11;6.88;;;2.05;;
57842;SDS011;43673;51.058;3.734;2023-04-24T14:38:37;4.00;;;1.83;;
57842;SDS011;43673;51.058;3.734;2023-04-24T14:41:03;4.32;;;2.17;;
57842;SDS011;43673;51.058;3.734;2023-04-24T14:43:34;4.72;;;1.70;;
57842;SDS011;43673;51.058;3.734;2023-04-24T14:46:00;4.72;;;1.60;;
57842;SDS011;43673;51.058;3.734;2023-04-24T14:48:27;5.03;;;2.47;;
57842;SDS011;43673;51.058;3.734;2023-04-24T14:50:59;4.43;;;2.20;;
57842;SDS011;43673;51.058;3.734;2023-04-24T14:53:37;6.15;;;3.05;;
57842;SDS011;43673;51.058;3.734;2023-04-24T15:01:47;4.97;;;2.70;;
57842;SDS011;43673;51.058;3.734;2023-04-24T15:04:12;4.95;;;2.58;;
57842;SDS011;43673;51.058;3.734;2023-04-24T15:06:38;4.22;;;3.38;;
57842;SDS011;43673;51.058;3.734;2023-04-24T15:11:40;3.58;;;2.17;;
57842;SDS011;43673;51.058;3.734;2023-04-24T15:14:06;2.75;;;2.08;;
57842;SDS011;43673;51.058;3.734;2023-04-24T15:16:33;6.60;;;2.90;;
57842;SDS011;43673;51.058;3.734;2023-04-24T15:18:59;5.65;;;2.65;;
57842;SDS011;43673;51.058;3.734;2023-04-24T15:21:26;4.15;;;2.33;;
57842;SDS011;43673;51.058;3.734;2023-04-24T15:23:52;2.63;;;2.42;;
57842;SDS011;43673;51.058;3.734;2023-04-24T15:26:18;3.67;;;2.90;;
57842;SDS011;43673;51.058;3.734;2023-04-24T15:28:46;2.70;;;2.17;;
57842;SDS011;43673;51.058;3.734;2023-04-24T15:31:13;2.40;;;2.15;;
57842;SDS011;43673;51.058;3.734;2023-04-24T15:33:39;9.02;;;3.97;;
57842;SDS011;43673;51.058;3.734;2023-04-24T15:36:05;3.85;;;2.60;;
57842;SDS011;43673;51.058;3.734;2023-04-24T15:38:30;5.85;;;3.45;;
57842;SDS011;43673;51.058;3.734;2023-04-24T15:40:56;6.25;;;3.40;;
57842;SDS011;43673;51.058;3.734;2023-04-24T15:43:22;5.68;;;3.13;;
57842;SDS011;43673;51.058;3.734;2023-04-24T15:45:51;4.72;;;3.20;;
57842;SDS011;43673;51.058;3.734;2023-04-24T15:48:20;5.20;;;2.90;;
57842;SDS011;43673;51.058;3.734;2023-04-24T15:50:45;7.07;;;3.83;;
57842;SDS011;43673;51.058;3.734;2023-04-24T15:53:11;4.75;;;3.13;;
57842;SDS011;43673;51.058;3.734;2023-04-24T15:55:37;5.78;;;3.50;;
57842;SDS011;43673;51.058;3.734;2023-04-24T15:58:03;6.20;;;3.10;;
57842;SDS011;43673;51.058;3.734;2023-04-24T16:00:29;5.80;;;3.22;;
57842;SDS011;43673;51.058;3.734;2023-04-24T16:03:02;3.92;;;2.42;;
57842;SDS011;43673;51.058;3.734;2023-04-24T16:05:28;5.45;;;3.05;;
57842;SDS011;43673;51.058;3.734;2023-04-24T16:07:53;5.43;;;3.50;;
57842;SDS011;43673;51.058;3.734;2023-04-24T16:10:19;12.05;;;4.90;;
57842;SDS011;43673;51.058;3.734;2023-04-24T16:12:50;9.82;;;3.72;;
57842;SDS011;43673;51.058;3.734;2023-04-24T16:15:49;6.10;;;4.28;;
57842;SDS011;43673;51.058;3.734;2023-04-24T16:22:03;9.13;;;4.80;;
57842;SDS011;43673;51.058;3.734;2023-04-24T16:24:32;6.43;;;4.00;;
57842;SDS011;43673;51.058;3.734;2023-04-24T16:26:59;4.50;;;2.97;;
57842;SDS011;43673;51.058;3.734;2023-04-24T16:29:29;8.25;;;3.75;;
57842;SDS011;43673;51.058;3.734;2023-04-24T16:31:55;8.50;;;4.30;;
57842;SDS011;43673;51.058;3.734;2023-04-24T16:34:21;5.75;;;3.95;;
57842;SDS011;43673;51.058;3.734;2023-04-24T16:36:47;8.30;;;3.78;;
57842;SDS011;43673;51.058;3.734;2023-04-24T16:39:33;6.85;;;3.55;;
57842;SDS011;43673;51.058;3.734;2023-04-24T16:41:59;6.65;;;3.65;;
57842;SDS011;43673;51.058;3.734;2023-04-24T16:44:29;6.28;;;3.60;;
57842;SDS011;43673;51.058;3.734;2023-04-24T16:47:05;5.43;;;2.97;;
57842;SDS011;43673;51.058;3.734;2023-04-24T16:52:12;7.47;;;3.22;;
57842;SDS011;43673;51.058;3.734;2023-04-24T16:54:40;5.50;;;3.25;;
57842;SDS011;43673;51.058;3.734;2023-04-24T16:57:06;6.50;;;3.45;;
57842;SDS011;43673;51.058;3.734;2023-04-24T16:59:32;5.75;;;2.92;;
57842;SDS011;43673;51.058;3.734;2023-04-24T17:01:59;7.32;;;3.85;;
57842;SDS011;43673;51.058;3.734;2023-04-24T17:04:25;8.73;;;3.78;;
57842;SDS011;43673;51.058;3.734;2023-04-24T17:07:02;7.60;;;4.05;;
57842;SDS011;43673;51.058;3.734;2023-04-24T17:09:29;11.43;;;4.65;;
57842;SDS011;43673;51.058;3.734;2023-04-24T17:11:56;7.43;;;2.90;;
57842;SDS011;43673;51.058;3.734;2023-04-24T17:14:34;8.23;;;3.28;;
57842;SDS011;43673;51.058;3.734;2023-04-24T17:17:40;4.35;;;2.92;;
57842;SDS011;43673;51.058;3.734;2023-04-24T17:20:11;5.32;;;3.55;;
57842;SDS011;43673;51.058;3.734;2023-04-24T17:22:39;9.60;;;4.72;;
57842;SDS011;43673;51.058;3.734;2023-04-24T17:25:08;8.43;;;3.95;;
57842;SDS011;43673;51.058;3.734;2023-04-24T17:28:03;8.30;;;4.18;;
57842;SDS011;43673;51.058;3.734;2023-04-24T17:30:42;8.80;;;4.22;;
57842;SDS011;43673;51.058;3.734;2023-04-24T18:07:33;4.57;;;3.95;;
